createdAt,value
2018-01-19T00:00:05.822Z,962.62
2018-01-19T00:01:05.789Z,962.76
2018-01-19T00:02:05.166Z,962.73
2018-01-19T00:03:05.582Z,962.85
2018-01-19T00:04:05.645Z,962.68
2018-01-19T00:05:05.192Z,962.79
2018-01-19T00:06:05.804Z,962.79
2018-01-19T00:07:05.520Z,962.79
2018-01-19T00:08:05.069Z,962.71
2018-01-19T00:09:04.982Z,962.77
2018-01-19T00:10:05.660Z,962.65
2018-01-19T00:11:05.274Z,962.71
2018-01-19T00:12:05.912Z,962.52
2018-01-19T00:13:05.311Z,962.60
2018-01-19T00:14:05.088Z,962.60
2018-01-19T00:15:05.576Z,962.69
2018-01-19T00:16:05.416Z,962.72
2018-01-19T00:17:05.778Z,962.60
2018-01-19T00:18:05.641Z,962.69
2018-01-19T00:19:05.708Z,962.69
2018-01-19T00:20:05.198Z,962.55
2018-01-19T00:21:05.689Z,962.61
2018-01-19T00:22:05.102Z,962.72
2018-01-19T00:23:05.684Z,962.81
2018-01-19T00:24:05.476Z,962.58
2018-01-19T00:25:05.339Z,962.70
2018-01-19T00:26:05.517Z,962.67
2018-01-19T00:27:05.461Z,962.78
2018-01-19T00:28:05.200Z,962.81
2018-01-19T00:29:05.678Z,962.71
2018-01-19T00:30:05.674Z,962.68
2018-01-19T00:31:05.878Z,962.71
2018-01-19T00:32:05.459Z,962.77
2018-01-19T00:33:05.413Z,962.82
2018-01-19T00:34:05.357Z,962.77
2018-01-19T00:35:05.341Z,962.74
2018-01-19T00:36:05.762Z,962.74
2018-01-19T00:37:05.431Z,962.77
2018-01-19T00:38:05.832Z,962.61
2018-01-19T00:39:05.354Z,962.80
2018-01-19T00:40:05.326Z,962.72
2018-01-19T00:41:05.864Z,962.58
2018-01-19T00:42:05.482Z,962.61
2018-01-19T00:43:05.214Z,962.69
2018-01-19T00:44:05.463Z,962.66
2018-01-19T00:45:05.879Z,962.75
2018-01-19T00:46:05.355Z,962.53
2018-01-19T00:47:05.681Z,962.53
2018-01-19T00:48:05.008Z,962.56
2018-01-19T00:49:05.065Z,962.67
2018-01-19T00:50:05.984Z,962.56
2018-01-19T00:51:05.572Z,962.70
2018-01-19T00:52:05.587Z,962.81
2018-01-19T00:53:05.023Z,962.78
2018-01-19T00:54:05.642Z,962.76
2018-01-19T00:55:05.005Z,962.62
2018-01-19T00:56:05.602Z,962.65
2018-01-19T00:57:05.106Z,962.70
2018-01-19T00:58:05.836Z,962.56
2018-01-19T00:59:05.325Z,962.76
2018-01-19T01:00:04.977Z,962.73
2018-01-19T01:01:05.546Z,962.79
2018-01-19T01:02:05.448Z,962.79
2018-01-19T01:03:05.618Z,962.62
2018-01-19T01:04:05.475Z,962.65
2018-01-19T01:05:05.128Z,962.54
2018-01-19T01:06:05.711Z,962.68
2018-01-19T01:07:10.805Z,962.71
2018-01-19T01:08:05.749Z,962.68
2018-01-19T01:09:05.432Z,962.52
2018-01-19T01:10:05.015Z,962.71
2018-01-19T01:11:05.414Z,962.71
2018-01-19T01:12:05.444Z,962.77
2018-01-19T01:13:05.167Z,962.75
2018-01-19T01:14:05.788Z,962.75
2018-01-19T01:15:05.363Z,962.78
2018-01-19T01:16:05.066Z,962.75
2018-01-19T01:17:06.040Z,962.80
2018-01-19T01:18:05.524Z,962.83
2018-01-19T01:19:05.242Z,962.80
2018-01-19T01:20:05.318Z,962.92
2018-01-19T01:21:05.475Z,962.94
2018-01-19T01:22:05.502Z,962.91
2018-01-19T01:23:05.578Z,962.97
2018-01-19T01:24:05.056Z,962.94
2018-01-19T01:25:05.779Z,962.89
2018-01-19T01:26:05.706Z,963.00
2018-01-19T01:27:05.390Z,962.91
2018-01-19T01:28:05.099Z,962.91
2018-01-19T01:29:05.536Z,963.02
2018-01-19T01:30:05.448Z,963.00
2018-01-19T01:31:05.903Z,963.05
2018-01-19T01:32:05.674Z,963.02
2018-01-19T01:33:05.825Z,963.08
2018-01-19T01:34:05.940Z,963.16
2018-01-19T01:35:05.265Z,962.94
2018-01-19T01:36:04.988Z,962.85
2018-01-19T01:37:05.358Z,963.16
2018-01-19T01:38:05.307Z,962.97
2018-01-19T01:39:05.616Z,962.97
2018-01-19T01:40:05.419Z,962.97
2018-01-19T01:41:05.063Z,963.00
2018-01-19T01:42:05.860Z,962.94
2018-01-19T01:43:05.291Z,962.86
2018-01-19T01:44:04.958Z,962.80
2018-01-19T01:45:06.951Z,962.91
2018-01-19T01:46:05.180Z,962.83
2018-01-19T01:47:05.812Z,962.94
2018-01-19T01:48:05.434Z,962.92
2018-01-19T01:49:05.786Z,962.92
2018-01-19T01:50:05.566Z,962.92
2018-01-19T01:51:05.147Z,963.03
2018-01-19T01:52:10.704Z,962.97
2018-01-19T01:53:05.696Z,963.00
2018-01-19T01:54:05.408Z,962.97
2018-01-19T01:55:06.128Z,962.97
2018-01-19T01:56:05.475Z,962.97
2018-01-19T01:57:05.127Z,962.92
2018-01-19T01:58:05.519Z,962.97
2018-01-19T01:59:05.907Z,962.92
2018-01-19T02:00:05.560Z,962.86
2018-01-19T02:01:05.339Z,962.94
2018-01-19T02:02:05.939Z,963.06
2018-01-19T02:03:05.395Z,962.97
2018-01-19T02:04:04.993Z,962.97
2018-01-19T02:05:05.517Z,963.00
2018-01-19T02:06:05.226Z,962.92
2018-01-19T02:07:05.691Z,962.86
2018-01-19T02:08:05.453Z,962.92
2018-01-19T02:09:06.072Z,962.94
2018-01-19T02:10:05.707Z,963.00
2018-01-19T02:11:05.654Z,963.05
2018-01-19T02:12:04.951Z,962.89
2018-01-19T02:13:05.914Z,962.89
2018-01-19T02:14:05.556Z,962.94
2018-01-19T02:15:06.212Z,962.94
2018-01-19T02:16:05.534Z,963.03
2018-01-19T02:17:05.516Z,962.97
2018-01-19T02:18:04.970Z,963.00
2018-01-19T02:19:05.627Z,963.03
2018-01-19T02:20:05.112Z,962.97
2018-01-19T02:21:06.001Z,963.03
2018-01-19T02:22:05.636Z,963.14
2018-01-19T02:23:05.197Z,963.00
2018-01-19T02:24:05.617Z,963.11
2018-01-19T02:25:05.423Z,963.11
2018-01-19T02:26:05.872Z,963.16
2018-01-19T02:27:05.764Z,963.14
2018-01-19T02:28:05.193Z,963.11
2018-01-19T02:29:05.092Z,963.08
2018-01-19T02:30:05.841Z,963.08
2018-01-19T02:31:05.984Z,963.11
2018-01-19T02:32:05.427Z,963.14
2018-01-19T02:33:05.168Z,963.08
2018-01-19T02:34:05.469Z,963.22
2018-01-19T02:35:05.433Z,963.16
2018-01-19T02:36:05.144Z,963.19
2018-01-19T02:37:05.601Z,963.16
2018-01-19T02:38:05.751Z,963.22
2018-01-19T02:39:05.241Z,963.02
2018-01-19T02:40:05.157Z,963.11
2018-01-19T02:41:04.960Z,963.27
2018-01-19T02:42:05.189Z,963.30
2018-01-19T02:43:05.387Z,963.16
2018-01-19T02:44:05.883Z,963.24
2018-01-19T02:45:05.604Z,963.13
2018-01-19T02:46:05.927Z,963.22
2018-01-19T02:47:05.568Z,963.10
2018-01-19T02:48:05.730Z,963.10
2018-01-19T02:49:05.182Z,963.05
2018-01-19T02:50:05.287Z,963.19
2018-01-19T02:51:05.212Z,962.99
2018-01-19T02:52:05.714Z,963.05
2018-01-19T02:53:05.404Z,963.05
2018-01-19T02:54:05.812Z,963.10
2018-01-19T02:55:05.273Z,962.99
2018-01-19T02:56:05.123Z,962.91
2018-01-19T02:57:05.135Z,963.10
2018-01-19T02:58:05.170Z,963.02
2018-01-19T02:59:05.001Z,962.99
2018-01-19T03:00:05.104Z,963.02
2018-01-19T03:01:05.247Z,963.02
2018-01-19T03:02:05.721Z,963.10
2018-01-19T03:03:05.146Z,962.96
2018-01-19T03:04:05.073Z,962.99
2018-01-19T03:05:05.567Z,963.02
2018-01-19T03:06:05.293Z,963.08
2018-01-19T03:07:04.938Z,963.05
2018-01-19T03:08:04.963Z,963.08
2018-01-19T03:09:05.464Z,963.16
2018-01-19T03:10:06.233Z,963.08
2018-01-19T03:11:05.569Z,963.02
2018-01-19T03:12:05.292Z,962.99
2018-01-19T03:13:05.899Z,963.14
2018-01-19T03:14:05.505Z,962.99
2018-01-19T03:15:05.234Z,963.11
2018-01-19T03:16:05.171Z,963.14
2018-01-19T03:17:05.211Z,962.97
2018-01-19T03:18:05.890Z,963.05
2018-01-19T03:19:05.459Z,963.03
2018-01-19T03:20:05.141Z,963.17
2018-01-19T03:21:05.852Z,963.17
2018-01-19T03:22:05.414Z,963.08
2018-01-19T03:23:05.482Z,963.28
2018-01-19T03:24:05.130Z,963.23
2018-01-19T03:25:05.044Z,963.12
2018-01-19T03:26:05.004Z,963.14
2018-01-19T03:27:05.411Z,963.23
2018-01-19T03:28:05.148Z,963.15
2018-01-19T03:29:05.656Z,963.26
2018-01-19T03:30:05.401Z,963.12
2018-01-19T03:31:04.991Z,963.18
2018-01-19T03:32:05.834Z,963.04
2018-01-19T03:33:05.231Z,963.01
2018-01-19T03:34:05.869Z,963.04
2018-01-19T03:35:06.036Z,963.21
2018-01-19T03:36:05.138Z,963.13
2018-01-19T03:37:05.530Z,963.18
2018-01-19T03:38:05.304Z,963.18
2018-01-19T03:39:05.942Z,963.13
2018-01-19T03:40:05.495Z,963.16
2018-01-19T03:41:05.706Z,963.07
2018-01-19T03:42:05.133Z,963.07
2018-01-19T03:43:05.926Z,963.16
2018-01-19T03:44:05.400Z,963.27
2018-01-19T03:45:05.042Z,963.30
2018-01-19T03:46:05.224Z,963.30
2018-01-19T03:47:05.744Z,963.27
2018-01-19T03:48:05.593Z,963.27
2018-01-19T03:49:05.126Z,963.24
2018-01-19T03:50:05.456Z,963.19
2018-01-19T03:51:05.103Z,963.30
2018-01-19T03:52:06.071Z,963.16
2018-01-19T03:53:05.194Z,963.25
2018-01-19T03:54:05.980Z,963.19
2018-01-19T03:55:04.964Z,963.19
2018-01-19T03:56:05.512Z,963.39
2018-01-19T03:57:05.367Z,963.27
2018-01-19T03:58:10.405Z,963.28
2018-01-19T03:59:05.631Z,963.39
2018-01-19T04:00:05.735Z,963.33
2018-01-19T04:01:05.619Z,963.34
2018-01-19T04:02:05.239Z,963.34
2018-01-19T04:03:05.095Z,963.42
2018-01-19T04:04:05.463Z,963.51
2018-01-19T04:05:05.578Z,963.51
2018-01-19T04:06:05.198Z,963.65
2018-01-19T04:07:05.754Z,963.54
2018-01-19T04:08:05.989Z,963.51
2018-01-19T04:09:05.671Z,963.48
2018-01-19T04:10:05.346Z,963.54
2018-01-19T04:11:05.805Z,963.51
2018-01-19T04:12:05.059Z,963.62
2018-01-19T04:13:05.150Z,963.51
2018-01-19T04:14:05.553Z,963.48
2018-01-19T04:15:05.576Z,963.43
2018-01-19T04:16:05.012Z,963.49
2018-01-19T04:17:05.122Z,963.46
2018-01-19T04:18:05.062Z,963.60
2018-01-19T04:19:05.530Z,963.57
2018-01-19T04:20:05.237Z,963.60
2018-01-19T04:21:05.745Z,963.60
2018-01-19T04:22:05.058Z,963.68
2018-01-19T04:23:05.777Z,963.57
2018-01-19T04:24:05.421Z,963.77
2018-01-19T04:25:05.994Z,963.57
2018-01-19T04:26:05.536Z,963.74
2018-01-19T04:27:05.100Z,963.68
2018-01-19T04:28:05.677Z,963.68
2018-01-19T04:29:05.239Z,963.68
2018-01-19T04:30:05.569Z,963.71
2018-01-19T04:31:05.621Z,963.76
2018-01-19T04:32:05.370Z,963.65
2018-01-19T04:33:05.030Z,963.74
2018-01-19T04:34:05.347Z,963.73
2018-01-19T04:35:05.265Z,963.79
2018-01-19T04:36:05.937Z,963.84
2018-01-19T04:37:05.048Z,963.73
2018-01-19T04:38:05.842Z,963.73
2018-01-19T04:39:06.032Z,963.76
2018-01-19T04:40:05.291Z,963.65
2018-01-19T04:41:05.233Z,963.65
2018-01-19T04:42:05.789Z,963.70
2018-01-19T04:43:05.135Z,963.78
2018-01-19T04:44:05.535Z,963.81
2018-01-19T04:45:05.139Z,963.73
2018-01-19T04:46:05.640Z,963.81
2018-01-19T04:47:05.573Z,963.62
2018-01-19T04:48:05.020Z,963.67
2018-01-19T04:49:05.106Z,963.67
2018-01-19T04:50:06.063Z,963.59
2018-01-19T04:51:05.623Z,963.61
2018-01-19T04:52:05.363Z,963.72
2018-01-19T04:53:05.696Z,963.64
2018-01-19T04:54:05.642Z,963.70
2018-01-19T04:55:05.146Z,963.70
2018-01-19T04:56:10.739Z,963.75
2018-01-19T04:57:05.221Z,963.70
2018-01-19T04:58:06.077Z,963.75
2018-01-19T04:59:05.550Z,963.75
2018-01-19T05:00:05.476Z,963.76
2018-01-19T05:01:05.333Z,963.73
2018-01-19T05:02:05.389Z,963.87
2018-01-19T05:03:05.602Z,963.84
2018-01-19T05:04:05.102Z,963.91
2018-01-19T05:05:05.774Z,963.89
2018-01-19T05:06:05.119Z,963.81
2018-01-19T05:07:05.520Z,963.79
2018-01-19T05:08:05.656Z,963.89
2018-01-19T05:09:05.521Z,963.81
2018-01-19T05:10:05.584Z,963.92
2018-01-19T05:11:05.065Z,963.97
2018-01-19T05:12:05.849Z,964.00
2018-01-19T05:13:05.449Z,964.06
2018-01-19T05:14:05.143Z,963.95
2018-01-19T05:15:05.481Z,963.92
2018-01-19T05:16:05.100Z,963.92
2018-01-19T05:17:05.607Z,963.95
2018-01-19T05:18:05.405Z,963.92
2018-01-19T05:19:05.339Z,963.89
2018-01-19T05:20:05.806Z,963.88
2018-01-19T05:21:05.579Z,964.03
2018-01-19T05:22:05.073Z,963.93
2018-01-19T05:23:05.701Z,964.07
2018-01-19T05:24:05.348Z,964.04
2018-01-19T05:25:06.522Z,964.07
2018-01-19T05:26:04.981Z,964.21
2018-01-19T05:27:06.014Z,964.04
2018-01-19T05:28:05.417Z,964.13
2018-01-19T05:29:05.623Z,964.07
2018-01-19T05:30:10.398Z,964.13
2018-01-19T05:31:05.528Z,964.18
2018-01-19T05:32:05.144Z,964.13
2018-01-19T05:33:05.028Z,964.13
2018-01-19T05:34:05.569Z,964.19
2018-01-19T05:35:05.056Z,964.19
2018-01-19T05:36:05.574Z,964.16
2018-01-19T05:37:05.006Z,964.30
2018-01-19T05:38:05.404Z,964.30
2018-01-19T05:39:04.892Z,964.16
2018-01-19T05:40:04.966Z,964.13
2018-01-19T05:41:05.635Z,964.30
2018-01-19T05:42:05.087Z,964.22
2018-01-19T05:43:05.041Z,964.24
2018-01-19T05:44:04.944Z,964.22
2018-01-19T05:45:21.081Z,964.08
2018-01-19T05:46:10.515Z,964.24
2018-01-19T05:47:05.605Z,964.16
2018-01-19T05:48:06.202Z,964.33
2018-01-19T05:49:07.809Z,964.25
2018-01-19T05:50:05.701Z,964.19
2018-01-19T05:51:05.218Z,964.25
2018-01-19T05:52:05.082Z,964.41
2018-01-19T05:53:04.976Z,964.50
2018-01-19T05:54:05.571Z,964.36
2018-01-19T05:55:05.313Z,964.36
2018-01-19T05:56:04.904Z,964.28
2018-01-19T05:57:04.991Z,964.28
2018-01-19T05:58:05.703Z,964.44
2018-01-19T05:59:05.199Z,964.44
2018-01-19T06:00:05.165Z,964.47
2018-01-19T06:01:05.809Z,964.50
2018-01-19T06:02:05.321Z,964.47
2018-01-19T06:03:05.158Z,964.59
2018-01-19T06:04:05.503Z,964.50
2018-01-19T06:05:05.228Z,964.59
2018-01-19T06:06:05.549Z,964.50
2018-01-19T06:07:05.480Z,964.56
2018-01-19T06:08:05.087Z,964.47
2018-01-19T06:09:05.543Z,964.42
2018-01-19T06:10:05.825Z,964.53
2018-01-19T06:11:06.034Z,964.56
2018-01-19T06:12:05.706Z,964.48
2018-01-19T06:13:05.466Z,964.48
2018-01-19T06:14:05.348Z,964.56
2018-01-19T06:15:05.382Z,964.73
2018-01-19T06:16:05.898Z,964.70
2018-01-19T06:17:05.577Z,964.56
2018-01-19T06:18:05.577Z,964.62
2018-01-19T06:19:05.462Z,964.62
2018-01-19T06:20:05.486Z,964.86
2018-01-19T06:21:04.980Z,964.76
2018-01-19T06:22:05.481Z,964.64
2018-01-19T06:23:05.811Z,964.83
2018-01-19T06:24:05.470Z,964.75
2018-01-19T06:25:05.500Z,964.59
2018-01-19T06:26:05.389Z,964.70
2018-01-19T06:27:05.934Z,964.70
2018-01-19T06:28:05.614Z,964.67
2018-01-19T06:29:05.959Z,964.94
2018-01-19T06:30:05.630Z,964.75
2018-01-19T06:31:05.049Z,964.83
2018-01-19T06:32:05.763Z,964.91
2018-01-19T06:33:05.540Z,964.83
2018-01-19T06:34:05.948Z,964.86
2018-01-19T06:35:05.863Z,964.78
2018-01-19T06:36:05.423Z,964.88
2018-01-19T06:37:05.740Z,964.88
2018-01-19T06:38:05.478Z,964.86
2018-01-19T06:39:05.290Z,964.75
2018-01-19T06:40:05.044Z,964.88
2018-01-19T06:41:05.261Z,964.88
2018-01-19T06:42:05.684Z,964.83
2018-01-19T06:43:05.241Z,964.78
2018-01-19T06:44:05.724Z,964.85
2018-01-19T06:45:05.738Z,964.97
2018-01-19T06:46:05.089Z,964.88
2018-01-19T06:47:10.819Z,965.02
2018-01-19T06:48:05.732Z,964.94
2018-01-19T06:49:07.283Z,964.97
2018-01-19T06:50:05.209Z,965.05
2018-01-19T06:51:05.771Z,965.02
2018-01-19T06:52:05.816Z,964.99
2018-01-19T06:53:05.605Z,965.16
2018-01-19T06:54:04.981Z,965.10
2018-01-19T06:55:05.649Z,965.22
2018-01-19T06:56:05.231Z,965.08
2018-01-19T06:57:05.419Z,965.16
2018-01-19T06:58:05.868Z,965.16
2018-01-19T06:59:05.013Z,965.13
2018-01-19T07:00:05.459Z,965.05
2018-01-19T07:01:05.356Z,965.24
2018-01-19T07:02:05.796Z,965.27
2018-01-19T07:03:05.658Z,965.24
2018-01-19T07:04:05.195Z,965.21
2018-01-19T07:05:05.782Z,965.16
2018-01-19T07:06:05.290Z,965.27
2018-01-19T07:07:05.617Z,965.24
2018-01-19T07:08:05.411Z,965.27
2018-01-19T07:09:05.251Z,965.38
2018-01-19T07:10:05.765Z,965.32
2018-01-19T07:11:05.546Z,965.44
2018-01-19T07:12:05.016Z,965.27
2018-01-19T07:13:05.656Z,965.24
2018-01-19T07:14:05.120Z,965.32
2018-01-19T07:15:05.452Z,965.32
2018-01-19T07:16:05.253Z,965.32
2018-01-19T07:17:05.172Z,965.46
2018-01-19T07:18:05.689Z,965.43
2018-01-19T07:19:05.305Z,965.46
2018-01-19T07:20:05.845Z,965.43
2018-01-19T07:21:05.586Z,965.46
2018-01-19T07:22:05.166Z,965.38
2018-01-19T07:23:05.774Z,965.55
2018-01-19T07:24:05.473Z,965.52
2018-01-19T07:25:06.090Z,965.46
2018-01-19T07:26:05.256Z,965.52
2018-01-19T07:27:05.187Z,965.43
2018-01-19T07:28:05.651Z,965.55
2018-01-19T07:29:05.488Z,965.52
2018-01-19T07:30:05.879Z,965.49
2018-01-19T07:31:05.692Z,965.67
2018-01-19T07:32:04.925Z,965.60
2018-01-19T07:33:10.845Z,965.81
2018-01-19T07:34:05.655Z,965.67
2018-01-19T07:35:05.324Z,965.54
2018-01-19T07:36:10.179Z,965.70
2018-01-19T07:37:05.346Z,965.65
2018-01-19T07:38:05.781Z,965.81
2018-01-19T07:39:05.852Z,965.73
2018-01-19T07:40:05.686Z,965.75
2018-01-19T07:41:05.809Z,965.62
2018-01-19T07:42:05.433Z,965.70
2018-01-19T07:43:04.936Z,965.84
2018-01-19T07:44:05.382Z,965.64
2018-01-19T07:45:05.287Z,965.81
2018-01-19T07:46:05.644Z,965.92
2018-01-19T07:47:05.391Z,965.84
2018-01-19T07:48:05.861Z,965.75
2018-01-19T07:49:05.587Z,965.86
2018-01-19T07:50:05.196Z,965.89
2018-01-19T07:51:05.795Z,965.81
2018-01-19T07:52:06.007Z,965.81
2018-01-19T07:53:05.408Z,965.78
2018-01-19T07:54:05.118Z,965.86
2018-01-19T07:55:05.100Z,965.84
2018-01-19T07:56:05.827Z,965.92
2018-01-19T07:57:05.477Z,965.86
2018-01-19T07:58:05.022Z,965.81
2018-01-19T07:59:05.545Z,965.69
2018-01-19T08:00:04.952Z,965.92
2018-01-19T08:01:05.479Z,965.86
2018-01-19T08:02:05.175Z,965.97
2018-01-19T08:03:05.582Z,965.97
2018-01-19T08:04:05.575Z,965.89
2018-01-19T08:05:15.359Z,965.97
2018-01-19T08:06:05.244Z,965.97
2018-01-19T08:07:05.690Z,965.97
2018-01-19T08:08:05.653Z,965.95
2018-01-19T08:09:05.568Z,966.00
2018-01-19T08:10:05.732Z,965.86
2018-01-19T08:11:05.119Z,965.92
2018-01-19T08:12:05.465Z,965.97
2018-01-19T08:13:05.177Z,965.92
2018-01-19T08:14:05.321Z,966.03
2018-01-19T08:15:05.970Z,965.97
2018-01-19T08:16:05.712Z,966.11
2018-01-19T08:17:05.130Z,966.00
2018-01-19T08:18:04.982Z,966.11
2018-01-19T08:19:05.706Z,966.06
2018-01-19T08:20:05.272Z,966.06
2018-01-19T08:21:10.079Z,966.00
2018-01-19T08:22:05.036Z,966.20
2018-01-19T08:23:05.663Z,966.20
2018-01-19T08:24:05.066Z,966.20
2018-01-19T08:25:05.612Z,966.11
2018-01-19T08:26:05.569Z,966.17
2018-01-19T08:27:05.073Z,966.06
2018-01-19T08:28:05.075Z,966.14
2018-01-19T08:29:05.746Z,966.08
2018-01-19T08:30:05.327Z,966.22
2018-01-19T08:31:05.964Z,966.14
2018-01-19T08:32:05.438Z,966.17
2018-01-19T08:33:05.479Z,966.22
2018-01-19T08:34:05.894Z,966.25
2018-01-19T08:35:10.552Z,966.19
2018-01-19T08:36:05.558Z,966.11
2018-01-19T08:37:05.101Z,966.05
2018-01-19T08:38:05.820Z,966.25
2018-01-19T08:39:05.587Z,966.30
2018-01-19T08:40:05.342Z,966.16
2018-01-19T08:41:05.822Z,966.19
2018-01-19T08:42:05.866Z,966.25
2018-01-19T08:43:05.442Z,966.25
2018-01-19T08:44:05.700Z,966.25
2018-01-19T08:45:05.276Z,966.33
2018-01-19T08:46:05.323Z,966.19
2018-01-19T08:47:04.956Z,966.27
2018-01-19T08:48:05.032Z,966.19
2018-01-19T08:49:05.452Z,966.33
2018-01-19T08:50:05.455Z,966.35
2018-01-19T08:51:05.309Z,966.44
2018-01-19T08:52:05.520Z,966.32
2018-01-19T08:53:05.997Z,966.35
2018-01-19T08:54:05.818Z,966.38
2018-01-19T08:55:05.390Z,966.46
2018-01-19T08:56:05.269Z,966.40
2018-01-19T08:57:05.148Z,966.51
2018-01-19T08:58:05.416Z,966.49
2018-01-19T08:59:05.494Z,966.54
2018-01-19T09:00:05.380Z,966.51
2018-01-19T09:01:05.981Z,966.43
2018-01-19T09:02:05.635Z,966.40
2018-01-19T09:03:05.261Z,966.45
2018-01-19T09:04:05.872Z,966.37
2018-01-19T09:05:05.470Z,966.48
2018-01-19T09:06:05.509Z,966.40
2018-01-19T09:07:05.184Z,966.48
2018-01-19T09:08:05.208Z,966.42
2018-01-19T09:09:05.651Z,966.39
2018-01-19T09:10:05.736Z,966.51
2018-01-19T09:11:05.938Z,966.42
2018-01-19T09:12:05.890Z,966.31
2018-01-19T09:13:05.415Z,966.64
2018-01-19T09:14:05.373Z,966.51
2018-01-19T09:15:04.982Z,966.59
2018-01-19T09:16:05.106Z,966.59
2018-01-19T09:17:06.289Z,966.51
2018-01-19T09:18:05.283Z,966.50
2018-01-19T09:19:05.844Z,966.59
2018-01-19T09:20:05.464Z,966.61
2018-01-19T09:21:05.883Z,966.53
2018-01-19T09:22:05.825Z,966.67
2018-01-19T09:23:05.112Z,966.72
2018-01-19T09:24:06.014Z,966.67
2018-01-19T09:25:06.108Z,966.89
2018-01-19T09:26:05.416Z,966.78
2018-01-19T09:27:05.915Z,966.61
2018-01-19T09:28:05.369Z,966.66
2018-01-19T09:29:05.438Z,966.72
2018-01-19T09:30:05.798Z,966.91
2018-01-19T09:31:05.783Z,966.69
2018-01-19T09:32:05.211Z,966.86
2018-01-19T09:33:05.182Z,966.83
2018-01-19T09:34:05.064Z,966.80
2018-01-19T09:35:06.233Z,966.83
2018-01-19T09:36:05.567Z,966.91
2018-01-19T09:37:05.320Z,966.94
2018-01-19T09:38:05.084Z,966.94
2018-01-19T09:39:05.688Z,966.83
2018-01-19T09:40:05.522Z,966.83
2018-01-19T09:41:05.091Z,966.96
2018-01-19T09:42:05.859Z,966.99
2018-01-19T09:43:05.417Z,967.07
2018-01-19T09:44:05.794Z,967.01
2018-01-19T09:45:05.495Z,966.96
2018-01-19T09:46:05.565Z,966.99
2018-01-19T09:47:05.506Z,967.09
2018-01-19T09:48:05.822Z,967.04
2018-01-19T09:49:05.649Z,967.15
2018-01-19T09:50:05.611Z,967.06
2018-01-19T09:51:05.403Z,967.20
2018-01-19T09:52:09.957Z,967.20
2018-01-19T09:53:05.897Z,967.09
2018-01-19T09:54:05.505Z,967.12
2018-01-19T09:55:05.397Z,967.20
2018-01-19T09:56:05.211Z,967.20
2018-01-19T09:57:05.625Z,967.03
2018-01-19T09:58:05.302Z,967.17
2018-01-19T09:59:04.924Z,967.11
2018-01-19T10:00:05.873Z,967.03
2018-01-19T10:01:05.087Z,967.19
2018-01-19T10:02:05.677Z,966.95
2018-01-19T10:03:05.545Z,967.11
2018-01-19T10:04:05.293Z,967.05
2018-01-19T10:05:05.937Z,967.16
2018-01-19T10:06:05.626Z,967.13
2018-01-19T10:07:05.585Z,967.19
2018-01-19T10:08:05.877Z,967.24
2018-01-19T10:09:10.778Z,967.21
2018-01-19T10:10:05.607Z,967.27
2018-01-19T10:11:06.007Z,967.32
2018-01-19T10:12:06.129Z,967.32
2018-01-19T10:13:05.906Z,967.21
2018-01-19T10:14:05.071Z,967.32
2018-01-19T10:15:05.721Z,967.32
2018-01-19T10:16:05.178Z,967.20
2018-01-19T10:17:05.934Z,967.47
2018-01-19T10:18:05.045Z,967.42
2018-01-19T10:19:06.039Z,967.34
2018-01-19T10:20:05.246Z,967.50
2018-01-19T10:21:06.099Z,967.39
2018-01-19T10:22:05.778Z,967.47
2018-01-19T10:23:05.336Z,967.47
2018-01-19T10:24:05.572Z,967.55
2018-01-19T10:25:05.695Z,967.47
2018-01-19T10:26:05.214Z,967.58
2018-01-19T10:27:05.773Z,967.52
2018-01-19T10:28:05.697Z,967.52
2018-01-19T10:29:05.351Z,967.55
2018-01-19T10:30:05.405Z,967.49
2018-01-19T10:31:05.075Z,967.64
2018-01-19T10:32:05.664Z,967.44
2018-01-19T10:33:05.561Z,967.58
2018-01-19T10:34:05.823Z,967.67
2018-01-19T10:35:05.207Z,967.67
2018-01-19T10:36:05.737Z,967.61
2018-01-19T10:37:05.300Z,967.70
2018-01-19T10:38:05.384Z,967.56
2018-01-19T10:39:06.196Z,967.48
2018-01-19T10:40:05.676Z,967.45
2018-01-19T10:41:05.287Z,967.59
2018-01-19T10:42:05.941Z,967.45
2018-01-19T10:43:05.561Z,967.59
2018-01-19T10:44:05.138Z,967.59
2018-01-19T10:45:05.729Z,967.62
2018-01-19T10:46:05.099Z,967.51
2018-01-19T10:47:05.761Z,967.59
2018-01-19T10:48:05.175Z,967.67
2018-01-19T10:49:05.836Z,967.62
2018-01-19T10:50:05.827Z,967.56
2018-01-19T10:51:05.386Z,967.68
2018-01-19T10:52:05.796Z,967.71
2018-01-19T10:53:05.616Z,967.73
2018-01-19T10:54:05.420Z,967.76
2018-01-19T10:55:05.930Z,967.65
2018-01-19T10:56:05.480Z,967.68
2018-01-19T10:57:05.600Z,967.60
2018-01-19T10:58:10.136Z,967.60
2018-01-19T10:59:05.068Z,967.54
2018-01-19T11:00:05.500Z,967.62
2018-01-19T11:01:05.139Z,967.60
2018-01-19T11:02:04.956Z,967.57
2018-01-19T11:03:05.868Z,967.65
2018-01-19T11:04:05.207Z,967.68
2018-01-19T11:05:05.036Z,967.63
2018-01-19T11:06:05.538Z,967.74
2018-01-19T11:07:05.539Z,967.79
2018-01-19T11:08:05.437Z,967.57
2018-01-19T11:09:05.207Z,967.77
2018-01-19T11:10:05.788Z,967.63
2018-01-19T11:11:05.943Z,967.60
2018-01-19T11:12:05.786Z,967.63
2018-01-19T11:13:05.879Z,967.54
2018-01-19T11:14:05.361Z,967.60
2018-01-19T11:15:05.244Z,967.60
2018-01-19T11:16:05.315Z,967.65
2018-01-19T11:17:05.079Z,967.82
2018-01-19T11:18:05.475Z,967.82
2018-01-19T11:19:05.567Z,967.74
2018-01-19T11:20:05.355Z,967.71
2018-01-19T11:21:04.994Z,967.71
2018-01-19T11:22:04.897Z,967.73
2018-01-19T11:23:05.144Z,967.82
2018-01-19T11:24:05.154Z,967.62
2018-01-19T11:25:05.169Z,967.73
2018-01-19T11:26:05.233Z,967.70
2018-01-19T11:27:05.444Z,967.53
2018-01-19T11:28:05.942Z,967.59
2018-01-19T11:29:05.230Z,967.72
2018-01-19T11:30:05.052Z,967.75
2018-01-19T11:31:05.048Z,967.80
2018-01-19T11:32:05.709Z,967.66
2018-01-19T11:33:05.645Z,967.83
2018-01-19T11:34:05.421Z,967.72
2018-01-19T11:35:05.201Z,967.91
2018-01-19T11:36:05.518Z,967.80
2018-01-19T11:37:10.366Z,967.77
2018-01-19T11:38:05.798Z,967.77
2018-01-19T11:39:05.217Z,967.74
2018-01-19T11:40:05.901Z,967.77
2018-01-19T11:41:05.287Z,967.77
2018-01-19T11:42:05.799Z,967.80
2018-01-19T11:43:05.157Z,967.79
2018-01-19T11:44:10.143Z,967.74
2018-01-19T11:45:05.289Z,967.71
2018-01-19T11:46:04.987Z,967.85
2018-01-19T11:47:05.945Z,967.68
2018-01-19T11:48:05.630Z,967.82
2018-01-19T11:49:05.156Z,967.71
2018-01-19T11:50:05.783Z,967.82
2018-01-19T11:51:05.782Z,967.73
2018-01-19T11:52:05.532Z,967.73
2018-01-19T11:53:06.243Z,967.82
2018-01-19T11:54:05.780Z,967.82
2018-01-19T11:55:10.338Z,967.73
2018-01-19T11:56:05.754Z,967.70
2018-01-19T11:57:05.875Z,967.76
2018-01-19T11:58:05.755Z,967.78
2018-01-19T11:59:05.495Z,967.87
2018-01-19T12:00:05.254Z,967.73
2018-01-19T12:01:05.871Z,967.78
2018-01-19T12:02:05.449Z,967.78
2018-01-19T12:03:05.078Z,967.81
2018-01-19T12:04:05.932Z,967.87
2018-01-19T12:05:05.127Z,967.70
2018-01-19T12:06:05.608Z,967.81
2018-01-19T12:07:05.201Z,967.92
2018-01-19T12:08:05.058Z,967.73
2018-01-19T12:09:05.977Z,967.90
2018-01-19T12:10:05.972Z,967.95
2018-01-19T12:11:05.638Z,967.84
2018-01-19T12:12:05.682Z,967.87
2018-01-19T12:13:05.395Z,967.78
2018-01-19T12:14:05.517Z,967.89
2018-01-19T12:15:05.646Z,967.95
2018-01-19T12:16:05.030Z,967.89
2018-01-19T12:17:05.453Z,967.95
2018-01-19T12:18:05.469Z,967.81
2018-01-19T12:19:06.001Z,967.92
2018-01-19T12:20:05.433Z,967.89
2018-01-19T12:21:05.040Z,968.03
2018-01-19T12:22:05.509Z,967.89
2018-01-19T12:23:04.899Z,968.03
2018-01-19T12:24:05.495Z,968.03
2018-01-19T12:25:06.046Z,967.95
2018-01-19T12:26:05.405Z,968.06
2018-01-19T12:27:05.006Z,968.11
2018-01-19T12:28:10.907Z,968.11